Time;durP1;ratioP1;P1;durP2;ratioP2;P2;SDS_P1;SDS_P2;PMS_P1;PMS_P2;Temp;Humidity;BMP_temperature;BMP_pressure;BME280_temperature;BME280_humidity;BME280_pressure;Samples;Min_cycle;Max_cycle;Signal;HPM_P1;HPM_P2
2022/07/02 00:00:52;;;;;;;;;;;19.90;63.70;;;;;;5045352;28;19928;-75
2022/07/02 00:03:21;;;;;;;;;;;19.90;63.90;;;;;;5044814;28;19933;-77
2022/07/02 00:05:48;;;;;;;;;;;19.80;63.90;;;;;;5045564;28;19936;-75
2022/07/02 00:08:17;;;;;;;;;;;19.80;64.10;;;;;;5046807;28;20432;-74
2022/07/02 00:10:43;;;;;;;;;;;19.70;64.10;;;;;;5044921;28;19935;-75
2022/07/02 00:13:11;;;;;;;;;;;19.70;64.20;;;;;;5045326;28;19935;-75
2022/07/02 00:15:38;;;;;;;;;;;19.70;64.50;;;;;;5045851;28;19975;-74
2022/07/02 00:18:04;;;;;;;;;;;19.70;64.70;;;;;;5043607;28;19929;-75
2022/07/02 00:20:31;;;;;;;;;;;19.60;64.90;;;;;;5045666;28;19933;-75
2022/07/02 00:22:58;;;;;;;;;;;19.50;64.70;;;;;;5044770;28;19940;-78
2022/07/02 00:25:24;;;;;;;;;;;19.50;65.80;;;;;;5040524;28;19932;-77
2022/07/02 00:27:51;;;;;;;;;;;19.50;65.20;;;;;;5044895;28;19928;-74
2022/07/02 00:30:19;;;;;;;;;;;19.50;65.00;;;;;;5043534;28;19929;-78
2022/07/02 00:32:47;;;;;;;;;;;19.40;65.20;;;;;;5041216;28;19936;-75
2022/07/02 00:35:14;;;;;;;;;;;19.40;65.30;;;;;;5043530;28;19928;-75
2022/07/02 00:37:41;;;;;;;;;;;19.40;65.40;;;;;;5044226;28;19940;-74
2022/07/02 00:40:08;;;;;;;;;;;19.40;65.50;;;;;;5042142;28;20602;-75
2022/07/02 00:42:36;;;;;;;;;;;19.30;65.60;;;;;;5044954;28;19928;-75
2022/07/02 00:45:03;;;;;;;;;;;19.30;65.70;;;;;;5045636;28;19940;-75
2022/07/02 00:47:33;;;;;;;;;;;19.30;65.70;;;;;;5048709;28;19928;-76
2022/07/02 00:50:02;;;;;;;;;;;19.20;65.60;;;;;;5045299;28;20029;-76
2022/07/02 00:52:32;;;;;;;;;;;19.20;65.80;;;;;;5046226;28;20023;-76
2022/07/02 00:54:59;;;;;;;;;;;19.20;65.70;;;;;;5044038;28;19936;-75
2022/07/02 00:57:27;;;;;;;;;;;19.20;65.90;;;;;;5047560;28;20770;-76
2022/07/02 00:59:54;;;;;;;;;;;19.10;66.00;;;;;;5046406;28;19951;-76
2022/07/02 01:02:22;;;;;;;;;;;19.10;67.10;;;;;;5044128;28;19928;-75
2022/07/02 01:04:51;;;;;;;;;;;19.00;66.20;;;;;;5047543;28;20252;-75
2022/07/02 01:07:19;;;;;;;;;;;19.00;66.30;;;;;;5044711;28;19994;-76
2022/07/02 01:12:31;;;;;;;;;;;18.90;66.50;;;;;;5045019;28;20320;-76
2022/07/02 01:14:58;;;;;;;;;;;18.90;66.50;;;;;;5042563;28;19959;-77
2022/07/02 01:17:25;;;;;;;;;;;18.80;66.70;;;;;;5043090;28;19929;-75
2022/07/02 01:19:53;;;;;;;;;;;18.80;66.60;;;;;;5046515;28;20308;-78
2022/07/02 01:22:21;;;;;;;;;;;18.80;66.70;;;;;;5043666;28;20322;-74
2022/07/02 01:24:49;;;;;;;;;;;18.80;66.90;;;;;;5045687;28;19936;-75
2022/07/02 01:27:16;;;;;;;;;;;18.80;67.00;;;;;;5046220;28;19929;-77
2022/07/02 01:29:42;;;;;;;;;;;18.70;67.00;;;;;;5044301;28;19935;-77
2022/07/02 01:32:10;;;;;;;;;;;18.70;67.00;;;;;;5041866;28;19938;-75
2022/07/02 01:34:38;;;;;;;;;;;18.70;67.10;;;;;;5041832;28;19929;-74
2022/07/02 01:37:05;;;;;;;;;;;18.60;67.10;;;;;;5043884;28;19964;-74
2022/07/02 01:39:33;;;;;;;;;;;18.60;67.10;;;;;;5042927;28;20436;-78
2022/07/02 01:41:59;;;;;;;;;;;18.60;67.10;;;;;;5043342;28;19938;-74
2022/07/02 01:44:26;;;;;;;;;;;18.50;67.10;;;;;;5042349;28;19928;-77
2022/07/02 01:46:53;;;;;;;;;;;18.50;67.20;;;;;;5043401;28;19941;-77
2022/07/02 01:49:19;;;;;;;;;;;18.50;67.30;;;;;;5043661;28;19940;-77
2022/07/02 01:51:46;;;;;;;;;;;18.50;67.50;;;;;;5044057;28;19935;-77
2022/07/02 01:54:13;;;;;;;;;;;18.40;67.50;;;;;;5040258;28;19936;-76
2022/07/02 01:56:41;;;;;;;;;;;18.40;67.60;;;;;;5043718;28;19998;-74
2022/07/02 01:59:08;;;;;;;;;;;18.40;67.60;;;;;;5044148;28;19944;-75
2022/07/02 02:01:35;;;;;;;;;;;18.30;67.60;;;;;;5041486;28;21851;-75
2022/07/02 02:04:02;;;;;;;;;;;18.30;67.70;;;;;;5043305;28;19939;-78
2022/07/02 02:06:29;;;;;;;;;;;18.20;67.70;;;;;;5044748;28;19928;-75
2022/07/02 02:08:55;;;;;;;;;;;18.20;67.90;;;;;;5043293;28;20297;-75
2022/07/02 02:11:22;;;;;;;;;;;18.20;68.00;;;;;;5041088;28;19932;-77
2022/07/02 02:13:50;;;;;;;;;;;18.20;68.00;;;;;;5042001;28;19943;-77
2022/07/02 02:16:16;;;;;;;;;;;18.10;68.10;;;;;;5041723;28;19924;-78
2022/07/02 02:18:43;;;;;;;;;;;18.10;68.10;;;;;;5042319;28;19924;-75
2022/07/02 02:21:10;;;;;;;;;;;18.10;68.20;;;;;;5041765;28;20335;-76
2022/07/02 02:23:36;;;;;;;;;;;18.10;68.20;;;;;;5034179;28;19936;-67
2022/07/02 02:26:03;;;;;;;;;;;18.00;68.10;;;;;;5036719;28;19929;-72
2022/07/02 02:28:30;;;;;;;;;;;18.00;68.30;;;;;;5043601;28;19936;-68
2022/07/02 02:30:57;;;;;;;;;;;18.00;68.40;;;;;;5041607;28;20008;-67
2022/07/02 02:33:24;;;;;;;;;;;17.90;68.60;;;;;;5039656;28;19925;-70
2022/07/02 02:35:50;;;;;;;;;;;17.90;68.60;;;;;;5040958;28;19929;-70
2022/07/02 02:38:17;;;;;;;;;;;17.90;68.70;;;;;;5042435;28;20636;-70
2022/07/02 02:40:44;;;;;;;;;;;17.90;68.90;;;;;;5041567;28;19936;-67
2022/07/02 02:43:10;;;;;;;;;;;17.80;68.70;;;;;;5042768;28;19936;-68
2022/07/02 02:45:37;;;;;;;;;;;17.80;68.80;;;;;;5041372;28;20476;-69
2022/07/02 02:48:05;;;;;;;;;;;17.80;68.90;;;;;;5041078;28;19928;-71
2022/07/02 02:50:32;;;;;;;;;;;17.80;68.90;;;;;;5041992;28;19928;-71
2022/07/02 02:52:58;;;;;;;;;;;17.70;69.00;;;;;;5041962;28;19940;-71
2022/07/02 02:55:25;;;;;;;;;;;17.70;69.00;;;;;;5036985;28;19935;-70
2022/07/02 02:57:52;;;;;;;;;;;17.70;69.10;;;;;;5042550;28;19929;-69
2022/07/02 03:00:18;;;;;;;;;;;17.70;69.20;;;;;;5041479;28;20755;-69
2022/07/02 03:02:45;;;;;;;;;;;17.60;69.20;;;;;;5037196;28;19928;-71
2022/07/02 03:05:13;;;;;;;;;;;17.70;69.50;;;;;;5039035;28;19983;-67
2022/07/02 03:07:39;;;;;;;;;;;17.60;69.50;;;;;;5041554;28;19936;-67
2022/07/02 03:10:07;;;;;;;;;;;17.60;69.50;;;;;;5041423;28;19932;-68
2022/07/02 03:12:33;;;;;;;;;;;17.60;69.60;;;;;;5041391;28;19929;-71
2022/07/02 03:15:00;;;;;;;;;;;17.50;69.70;;;;;;5039178;28;19936;-71
2022/07/02 03:17:26;;;;;;;;;;;17.50;69.70;;;;;;5041462;28;19975;-68
2022/07/02 03:19:53;;;;;;;;;;;17.50;69.90;;;;;;5041630;28;19929;-70
2022/07/02 03:22:21;;;;;;;;;;;17.50;69.90;;;;;;5042078;28;19925;-70
2022/07/02 03:24:47;;;;;;;;;;;17.40;69.90;;;;;;5038667;28;19936;-69
2022/07/02 03:27:14;;;;;;;;;;;17.40;69.70;;;;;;5042920;28;20297;-67
2022/07/02 03:29:40;;;;;;;;;;;17.40;69.80;;;;;;5042495;28;20304;-68
2022/07/02 03:32:07;;;;;;;;;;;17.40;69.90;;;;;;5040109;28;20573;-71
2022/07/02 03:34:34;;;;;;;;;;;17.40;70.10;;;;;;5039119;28;20427;-67
2022/07/02 03:37:00;;;;;;;;;;;17.40;70.20;;;;;;5041991;28;19936;-70
2022/07/02 03:39:28;;;;;;;;;;;17.30;70.20;;;;;;5037325;28;19929;-70
2022/07/02 03:41:55;;;;;;;;;;;17.30;70.20;;;;;;5041401;28;19936;-71
2022/07/02 03:44:21;;;;;;;;;;;17.30;70.40;;;;;;5040893;28;19936;-68
2022/07/02 03:46:48;;;;;;;;;;;17.30;70.40;;;;;;5040450;28;19936;-67
2022/07/02 03:49:14;;;;;;;;;;;17.20;70.30;;;;;;5038320;28;19929;-69
2022/07/02 03:51:41;;;;;;;;;;;17.20;70.40;;;;;;5039828;28;19929;-67
2022/07/02 03:54:07;;;;;;;;;;;17.20;70.40;;;;;;5043502;28;20404;-68
2022/07/02 03:56:35;;;;;;;;;;;17.20;70.50;;;;;;5038104;28;19932;-69
2022/07/02 03:59:02;;;;;;;;;;;17.10;70.60;;;;;;5039525;28;19928;-69
2022/07/02 04:01:28;;;;;;;;;;;17.20;70.60;;;;;;5041955;28;20379;-68
2022/07/02 04:03:55;;;;;;;;;;;17.10;70.70;;;;;;5039225;28;20626;-71
2022/07/02 04:06:22;;;;;;;;;;;17.10;70.90;;;;;;5041381;28;20591;-69
2022/07/02 04:08:48;;;;;;;;;;;17.10;71.00;;;;;;5041080;28;19928;-68
2022/07/02 04:11:15;;;;;;;;;;;17.10;71.00;;;;;;5037771;28;19929;-69
2022/07/02 04:13:42;;;;;;;;;;;17.00;71.20;;;;;;5040796;28;19928;-68
2022/07/02 04:16:09;;;;;;;;;;;17.00;71.20;;;;;;5035059;28;20000;-67
2022/07/02 04:18:36;;;;;;;;;;;17.00;71.30;;;;;;5041707;28;19932;-67
2022/07/02 04:21:02;;;;;;;;;;;17.00;71.30;;;;;;5044612;28;19936;-71
2022/07/02 04:23:29;;;;;;;;;;;16.90;71.30;;;;;;5045114;28;19929;-67
2022/07/02 04:25:55;;;;;;;;;;;16.90;71.30;;;;;;5039602;28;19979;-71
2022/07/02 04:28:23;;;;;;;;;;;17.00;71.50;;;;;;5045454;28;19933;-69
2022/07/02 04:30:51;;;;;;;;;;;16.90;71.60;;;;;;5043210;28;20336;-68
2022/07/02 04:33:18;;;;;;;;;;;16.90;71.70;;;;;;5040635;28;19928;-71
2022/07/02 04:35:44;;;;;;;;;;;16.90;71.70;;;;;;5043387;28;19939;-68
2022/07/02 04:38:11;;;;;;;;;;;16.90;71.70;;;;;;5045530;28;19936;-68
2022/07/02 04:40:37;;;;;;;;;;;16.90;71.80;;;;;;5042503;28;20575;-67
2022/07/02 04:43:04;;;;;;;;;;;16.80;71.80;;;;;;5045089;28;19924;-69
2022/07/02 04:45:31;;;;;;;;;;;16.80;71.90;;;;;;5043403;28;20301;-69
2022/07/02 04:47:59;;;;;;;;;;;16.80;71.90;;;;;;5044926;28;19935;-70
2022/07/02 04:50:25;;;;;;;;;;;16.80;72.00;;;;;;5043645;28;19928;-71
2022/07/02 04:52:52;;;;;;;;;;;16.80;72.10;;;;;;5045459;28;19929;-69
2022/07/02 04:55:18;;;;;;;;;;;16.80;72.20;;;;;;5038924;28;19929;-70
2022/07/02 04:57:45;;;;;;;;;;;16.80;72.30;;;;;;5044338;28;19932;-67
2022/07/02 05:00:12;;;;;;;;;;;16.80;72.30;;;;;;5045673;28;19935;-69
2022/07/02 05:02:38;;;;;;;;;;;16.70;72.40;;;;;;5043500;28;19929;-67
2022/07/02 05:05:07;;;;;;;;;;;16.70;72.50;;;;;;5042973;28;19938;-67
2022/07/02 05:07:33;;;;;;;;;;;16.70;72.50;;;;;;5045361;28;19939;-69
2022/07/02 05:10:00;;;;;;;;;;;16.70;72.70;;;;;;5039552;28;20698;-71
2022/07/02 05:12:27;;;;;;;;;;;16.70;72.80;;;;;;5045164;28;19935;-67
2022/07/02 05:14:53;;;;;;;;;;;16.70;72.80;;;;;;5037981;28;20370;-68
2022/07/02 05:17:20;;;;;;;;;;;16.60;72.80;;;;;;5044447;28;20461;-69
2022/07/02 05:19:46;;;;;;;;;;;16.70;73.00;;;;;;5043909;28;19936;-70
2022/07/02 05:22:14;;;;;;;;;;;16.70;73.20;;;;;;5043525;28;19929;-67
2022/07/02 05:24:41;;;;;;;;;;;16.60;73.00;;;;;;5038197;28;19929;-67
2022/07/02 05:27:08;;;;;;;;;;;16.60;73.10;;;;;;5044262;28;20436;-68
2022/07/02 05:29:34;;;;;;;;;;;16.60;73.10;;;;;;5044522;28;20694;-68
2022/07/02 05:32:01;;;;;;;;;;;16.60;73.20;;;;;;5040851;28;19956;-69
2022/07/02 05:34:27;;;;;;;;;;;16.60;73.20;;;;;;5041143;28;20371;-71
2022/07/02 05:36:54;;;;;;;;;;;16.60;73.10;;;;;;5044041;28;19936;-71
2022/07/02 05:39:22;;;;;;;;;;;16.70;73.30;;;;;;5043426;28;19929;-71
2022/07/02 05:41:48;;;;;;;;;;;16.70;73.40;;;;;;5042855;28;20650;-68
2022/07/02 05:44:15;;;;;;;;;;;16.70;73.30;;;;;;5041069;28;20543;-69
2022/07/02 05:46:41;;;;;;;;;;;16.70;73.30;;;;;;5042415;28;20652;-67
2022/07/02 05:49:08;;;;;;;;;;;16.70;73.40;;;;;;5039851;28;20427;-68
2022/07/02 05:51:34;;;;;;;;;;;16.70;73.50;;;;;;5043468;28;19935;-68
2022/07/02 05:54:01;;;;;;;;;;;16.70;73.70;;;;;;5044581;28;19937;-71
2022/07/02 05:56:29;;;;;;;;;;;16.70;73.60;;;;;;5035275;28;20344;-68
2022/07/02 05:58:55;;;;;;;;;;;16.70;73.70;;;;;;5043321;28;19933;-70
2022/07/02 06:01:22;;;;;;;;;;;16.80;73.80;;;;;;5042203;28;19929;-70
2022/07/02 06:03:48;;;;;;;;;;;16.80;73.80;;;;;;5042331;28;19935;-70
2022/07/02 06:08:59;;;;;;;;;;;16.80;73.80;;;;;;5041971;28;20556;-69
2022/07/02 06:11:25;;;;;;;;;;;16.80;73.80;;;;;;5040412;28;20774;-70
2022/07/02 06:13:53;;;;;;;;;;;16.80;73.90;;;;;;5038903;28;19959;-68
2022/07/02 06:16:20;;;;;;;;;;;16.90;74.00;;;;;;5038481;28;19941;-71
2022/07/02 06:18:46;;;;;;;;;;;16.90;74.10;;;;;;5042262;28;19929;-70
2022/07/02 06:21:13;;;;;;;;;;;16.90;74.20;;;;;;5041226;28;19932;-68
2022/07/02 06:23:40;;;;;;;;;;;16.90;74.20;;;;;;5040996;28;19925;-68
2022/07/02 06:26:06;;;;;;;;;;;16.90;74.40;;;;;;5041186;28;20495;-68
2022/07/02 06:28:33;;;;;;;;;;;17.00;74.40;;;;;;5037316;28;19940;-71
2022/07/02 06:31:00;;;;;;;;;;;17.00;74.60;;;;;;5032498;28;20499;-69
2022/07/02 06:33:27;;;;;;;;;;;17.00;74.60;;;;;;5033029;28;20587;-70
2022/07/02 06:35:54;;;;;;;;;;;17.00;74.60;;;;;;5040081;28;19940;-70
2022/07/02 06:38:20;;;;;;;;;;;17.10;74.70;;;;;;5039156;28;19933;-70
2022/07/02 06:40:47;;;;;;;;;;;17.10;74.80;;;;;;5038968;28;19925;-71
2022/07/02 06:43:13;;;;;;;;;;;17.10;75.00;;;;;;5036578;28;19936;-69
2022/07/02 06:45:40;;;;;;;;;;;17.10;75.00;;;;;;5040577;28;19936;-69
2022/07/02 06:48:08;;;;;;;;;;;17.10;75.20;;;;;;5041495;28;19936;-68
2022/07/02 06:50:34;;;;;;;;;;;17.20;75.40;;;;;;5041406;28;19940;-68
2022/07/02 06:53:01;;;;;;;;;;;17.20;75.50;;;;;;5042395;28;19936;-71
2022/07/02 06:55:27;;;;;;;;;;;17.20;75.60;;;;;;5036070;28;19937;-69
2022/07/02 06:57:54;;;;;;;;;;;17.30;75.60;;;;;;5039090;28;19933;-71
2022/07/02 07:00:23;;;;;;;;;;;17.30;75.90;;;;;;5042828;28;19928;-71
2022/07/02 07:02:50;;;;;;;;;;;17.30;75.90;;;;;;5041743;28;19980;-70
2022/07/02 07:05:18;;;;;;;;;;;17.30;75.90;;;;;;5039834;28;20408;-68
2022/07/02 07:07:44;;;;;;;;;;;17.40;75.90;;;;;;5043312;28;20609;-70
2022/07/02 07:10:11;;;;;;;;;;;17.40;76.20;;;;;;5037899;28;20436;-69
2022/07/02 07:12:38;;;;;;;;;;;17.40;76.10;;;;;;5041657;28;19928;-67
2022/07/02 07:15:07;;;;;;;;;;;17.50;76.20;;;;;;5040912;28;19933;-67
2022/07/02 07:17:34;;;;;;;;;;;17.40;76.20;;;;;;5039311;28;20385;-69
2022/07/02 07:20:01;;;;;;;;;;;17.50;76.30;;;;;;5041969;28;20031;-71
2022/07/02 07:22:28;;;;;;;;;;;17.50;76.30;;;;;;5042560;28;20039;-68
2022/07/02 07:24:55;;;;;;;;;;;17.60;76.60;;;;;;5037800;28;19929;-71
2022/07/02 07:27:22;;;;;;;;;;;17.60;76.40;;;;;;5038325;28;19929;-69
2022/07/02 07:29:49;;;;;;;;;;;17.60;76.30;;;;;;5041174;28;19929;-68
2022/07/02 07:32:15;;;;;;;;;;;17.60;76.50;;;;;;5035358;28;19951;-68
2022/07/02 07:34:42;;;;;;;;;;;17.80;76.60;;;;;;5039013;28;19951;-68
2022/07/02 07:37:08;;;;;;;;;;;17.80;76.60;;;;;;5041224;28;19959;-67
2022/07/02 07:39:36;;;;;;;;;;;17.80;76.70;;;;;;5040571;28;20309;-68
2022/07/02 07:42:03;;;;;;;;;;;17.80;76.60;;;;;;5041211;28;19929;-68
2022/07/02 07:44:31;;;;;;;;;;;17.90;76.60;;;;;;5041669;28;19933;-68
2022/07/02 07:46:58;;;;;;;;;;;17.90;76.40;;;;;;5040949;28;19925;-69
2022/07/02 07:49:24;;;;;;;;;;;17.90;76.30;;;;;;5039434;28;19951;-71
2022/07/02 07:51:51;;;;;;;;;;;18.00;76.30;;;;;;5041600;28;20545;-70
2022/07/02 07:54:18;;;;;;;;;;;18.00;76.10;;;;;;5041495;28;19971;-69
2022/07/02 07:56:45;;;;;;;;;;;18.00;76.20;;;;;;5045386;28;20705;-70
2022/07/02 07:59:12;;;;;;;;;;;18.10;76.30;;;;;;5045804;28;19929;-69
2022/07/02 08:01:39;;;;;;;;;;;18.10;76.10;;;;;;5044975;28;19928;-68
2022/07/02 08:04:05;;;;;;;;;;;18.20;76.00;;;;;;5044108;28;19933;-68
2022/07/02 08:06:32;;;;;;;;;;;18.20;75.90;;;;;;5046114;28;19935;-70
2022/07/02 08:08:59;;;;;;;;;;;18.20;75.70;;;;;;5045012;28;19929;-68
2022/07/02 08:11:26;;;;;;;;;;;18.30;75.60;;;;;;5040511;28;19940;-69
2022/07/02 08:13:54;;;;;;;;;;;18.40;75.30;;;;;;5045164;28;19933;-69
2022/07/02 08:16:20;;;;;;;;;;;18.40;75.10;;;;;;5044431;28;19937;-70
2022/07/02 08:18:47;;;;;;;;;;;18.40;75.10;;;;;;5045323;28;19936;-71
2022/07/02 08:21:13;;;;;;;;;;;18.50;75.00;;;;;;5044847;28;19948;-68
2022/07/02 08:23:40;;;;;;;;;;;18.50;74.90;;;;;;5044074;28;20007;-68
2022/07/02 08:26:07;;;;;;;;;;;18.50;74.60;;;;;;5038568;28;19940;-71
2022/07/02 08:28:34;;;;;;;;;;;18.60;74.60;;;;;;5044932;28;19929;-70
2022/07/02 08:31:02;;;;;;;;;;;18.60;74.40;;;;;;5041464;28;20404;-70
2022/07/02 08:33:28;;;;;;;;;;;18.70;74.30;;;;;;5042795;28;19929;-68
2022/07/02 08:35:55;;;;;;;;;;;18.70;74.00;;;;;;5041193;28;19940;-70
2022/07/02 08:38:22;;;;;;;;;;;18.80;73.80;;;;;;5043428;28;19933;-71
2022/07/02 08:40:49;;;;;;;;;;;18.90;73.80;;;;;;5041888;28;19940;-67
2022/07/02 08:43:16;;;;;;;;;;;18.90;73.40;;;;;;5042765;28;19970;-70
2022/07/02 08:45:43;;;;;;;;;;;18.90;73.00;;;;;;5041053;28;19936;-67
2022/07/02 08:48:11;;;;;;;;;;;19.00;72.90;;;;;;5042643;28;19936;-67
2022/07/02 08:50:39;;;;;;;;;;;19.00;72.40;;;;;;5043031;28;19956;-68
2022/07/02 08:53:06;;;;;;;;;;;19.10;71.90;;;;;;5048125;28;21743;-68
2022/07/02 08:55:34;;;;;;;;;;;19.10;71.20;;;;;;5035223;28;19932;-71
2022/07/02 08:58:00;;;;;;;;;;;19.20;70.70;;;;;;5044491;28;19936;-70
2022/07/02 09:00:28;;;;;;;;;;;19.20;70.60;;;;;;5044863;28;19944;-71
2022/07/02 09:02:56;;;;;;;;;;;19.30;70.40;;;;;;5042942;28;19983;-70
2022/07/02 09:05:25;;;;;;;;;;;19.30;69.80;;;;;;5041528;28;19964;-70
2022/07/02 09:07:51;;;;;;;;;;;19.30;69.20;;;;;;5044493;28;19929;-70
2022/07/02 09:10:20;;;;;;;;;;;19.40;68.90;;;;;;5039564;28;19929;-71
2022/07/02 09:12:47;;;;;;;;;;;19.40;68.60;;;;;;5044487;28;19982;-70
2022/07/02 09:15:14;;;;;;;;;;;19.50;68.30;;;;;;5042598;28;20403;-67
2022/07/02 09:17:41;;;;;;;;;;;19.50;67.60;;;;;;5043605;28;19929;-68
2022/07/02 09:20:09;;;;;;;;;;;19.60;67.60;;;;;;5040062;28;19936;-67
2022/07/02 09:22:37;;;;;;;;;;;19.60;67.20;;;;;;5043992;28;20019;-66
2022/07/02 09:25:11;;;;;;;;;;;19.70;66.90;;;;;;5042224;28;19933;-69
2022/07/02 09:27:38;;;;;;;;;;;19.70;66.80;;;;;;5043230;28;20411;-67
2022/07/02 09:30:06;;;;;;;;;;;19.80;66.50;;;;;;5042984;28;19943;-68
2022/07/02 09:32:40;;;;;;;;;;;19.90;66.90;;;;;;5043409;28;19933;-70
2022/07/02 09:35:07;;;;;;;;;;;19.90;66.40;;;;;;5037127;28;20387;-69
2022/07/02 09:37:34;;;;;;;;;;;20.00;66.10;;;;;;5042889;28;20428;-67
2022/07/02 09:40:03;;;;;;;;;;;20.00;65.80;;;;;;5042059;28;19928;-68
2022/07/02 09:42:30;;;;;;;;;;;20.10;65.60;;;;;;5043485;28;19940;-67
2022/07/02 09:44:57;;;;;;;;;;;20.10;65.30;;;;;;5040996;28;19929;-71
2022/07/02 09:47:32;;;;;;;;;;;20.20;65.30;;;;;;5040194;28;19931;-70
2022/07/02 09:50:01;;;;;;;;;;;20.30;65.00;;;;;;5043682;28;19967;-71
2022/07/02 09:52:28;;;;;;;;;;;20.30;65.00;;;;;;5042973;28;19929;-69
2022/07/02 09:54:54;;;;;;;;;;;20.40;64.70;;;;;;5038030;28;20454;-71
2022/07/02 09:57:22;;;;;;;;;;;20.50;64.30;;;;;;5042464;28;20385;-70
2022/07/02 09:59:49;;;;;;;;;;;20.50;63.80;;;;;;5042338;28;19948;-71
2022/07/02 10:02:20;;;;;;;;;;;20.60;63.80;;;;;;5042051;28;19929;-70
2022/07/02 10:04:46;;;;;;;;;;;20.70;63.70;;;;;;5042541;28;19940;-71
2022/07/02 10:07:13;;;;;;;;;;;20.80;63.30;;;;;;5042348;28;19935;-67
2022/07/02 10:09:41;;;;;;;;;;;20.80;62.90;;;;;;5037823;28;20420;-67
2022/07/02 10:12:09;;;;;;;;;;;20.90;62.70;;;;;;5042803;28;20029;-67
2022/07/02 10:14:38;;;;;;;;;;;21.00;62.30;;;;;;5042352;28;20385;-68
2022/07/02 10:17:04;;;;;;;;;;;21.00;61.80;;;;;;5042145;28;19928;-68
2022/07/02 10:19:31;;;;;;;;;;;21.10;61.80;;;;;;5041250;28;20428;-69
2022/07/02 10:21:59;;;;;;;;;;;21.20;61.80;;;;;;5042821;28;19929;-68
2022/07/02 10:24:26;;;;;;;;;;;21.30;61.70;;;;;;5040917;28;19929;-71
2022/07/02 10:26:54;;;;;;;;;;;21.30;61.30;;;;;;5043356;28;19929;-67
2022/07/02 10:29:21;;;;;;;;;;;21.40;60.90;;;;;;5042341;28;19932;-70
2022/07/02 10:31:53;;;;;;;;;;;21.50;60.90;;;;;;5041911;28;19929;-68
2022/07/02 10:34:25;;;;;;;;;;;21.50;60.50;;;;;;5030660;28;19929;-67
2022/07/02 10:36:52;;;;;;;;;;;21.60;60.10;;;;;;5040529;28;20007;-68
2022/07/02 10:39:19;;;;;;;;;;;21.60;60.20;;;;;;5039720;28;19933;-70
2022/07/02 10:41:46;;;;;;;;;;;21.70;59.80;;;;;;5039005;28;20037;-71
2022/07/02 10:44:14;;;;;;;;;;;21.80;59.50;;;;;;5037881;28;19936;-70
2022/07/02 10:46:47;;;;;;;;;;;21.90;59.80;;;;;;5042303;28;21294;-67
2022/07/02 10:49:24;;;;;;;;;;;22.00;59.20;;;;;;5041466;28;19928;-68
2022/07/02 10:51:53;;;;;;;;;;;22.00;58.50;;;;;;5042136;28;19940;-70
2022/07/02 10:54:30;;;;;;;;;;;22.10;58.40;;;;;;5035735;28;19929;-70
2022/07/02 10:56:56;;;;;;;;;;;22.20;58.00;;;;;;5041416;28;19933;-68
2022/07/02 10:59:24;;;;;;;;;;;22.30;58.00;;;;;;5043319;28;19932;-71
2022/07/02 11:02:00;;;;;;;;;;;22.30;57.90;;;;;;5043234;28;19936;-70
2022/07/02 11:04:28;;;;;;;;;;;22.40;58.00;;;;;;5036557;28;19933;-71
2022/07/02 11:07:03;;;;;;;;;;;22.50;57.80;;;;;;5043704;28;19928;-68
2022/07/02 11:09:31;;;;;;;;;;;22.50;57.70;;;;;;5039013;28;20407;-67
2022/07/02 11:12:00;;;;;;;;;;;22.60;57.50;;;;;;5041821;28;20297;-71
2022/07/02 11:14:27;;;;;;;;;;;22.70;57.10;;;;;;5040436;28;20449;-71
2022/07/02 11:16:55;;;;;;;;;;;22.70;56.70;;;;;;5039688;28;20425;-70
2022/07/02 11:19:22;;;;;;;;;;;22.80;56.40;;;;;;5042952;28;20478;-71
2022/07/02 11:21:51;;;;;;;;;;;22.80;56.10;;;;;;5042065;28;19929;-68
2022/07/02 11:24:19;;;;;;;;;;;22.90;56.00;;;;;;5039413;28;19943;-71
2022/07/02 11:26:46;;;;;;;;;;;23.00;56.10;;;;;;5041946;28;20141;-68
2022/07/02 11:29:13;;;;;;;;;;;23.00;55.90;;;;;;5043963;28;20032;-69
2022/07/02 11:31:40;;;;;;;;;;;23.10;56.30;;;;;;5045617;28;19928;-69
2022/07/02 11:34:07;;;;;;;;;;;23.20;55.60;;;;;;5041492;28;22032;-71
2022/07/02 11:36:36;;;;;;;;;;;23.20;55.40;;;;;;5040935;28;19936;-70
2022/07/02 11:39:09;;;;;;;;;;;23.30;55.20;;;;;;5044809;28;20491;-71
2022/07/02 11:41:36;;;;;;;;;;;23.30;54.90;;;;;;5045499;28;19937;-68
2022/07/02 11:44:13;;;;;;;;;;;23.40;54.80;;;;;;5045156;28;19929;-67
2022/07/02 11:46:39;;;;;;;;;;;23.40;54.60;;;;;;5040726;28;19929;-67
2022/07/02 11:49:14;;;;;;;;;;;23.50;54.50;;;;;;5044061;28;19987;-68
2022/07/02 11:51:40;;;;;;;;;;;23.60;54.10;;;;;;5045751;28;19928;-68
2022/07/02 11:54:07;;;;;;;;;;;23.70;54.30;;;;;;5043695;28;19933;-67
2022/07/02 11:56:38;;;;;;;;;;;23.70;54.00;;;;;;5045231;28;19935;-70
2022/07/02 11:59:05;;;;;;;;;;;23.80;53.40;;;;;;5045563;28;19971;-70
2022/07/02 12:01:32;;;;;;;;;;;23.80;53.40;;;;;;5043871;28;20278;-70
2022/07/02 12:04:00;;;;;;;;;;;23.90;53.60;;;;;;5044354;28;19955;-67
2022/07/02 12:06:28;;;;;;;;;;;24.00;53.70;;;;;;5045555;28;20661;-69
2022/07/02 12:08:55;;;;;;;;;;;24.00;53.80;;;;;;5046007;28;19935;-71
2022/07/02 12:11:23;;;;;;;;;;;24.10;53.80;;;;;;5041279;28;20404;-68
2022/07/02 12:13:52;;;;;;;;;;;24.10;53.40;;;;;;5042583;28;20411;-70
2022/07/02 12:16:19;;;;;;;;;;;24.20;53.10;;;;;;5043678;28;19932;-68
2022/07/02 12:18:56;;;;;;;;;;;24.30;53.20;;;;;;5040910;28;19932;-68
2022/07/02 12:21:22;;;;;;;;;;;24.60;50.40;;;;;;5044921;28;19936;-69
2022/07/02 12:23:50;;;;;;;;;;;25.00;50.10;;;;;;5044707;28;20289;-68
2022/07/02 12:26:22;;;;;;;;;;;25.10;50.70;;;;;;5044791;28;19933;-68
2022/07/02 12:31:45;;;;;;;;;;;25.10;52.10;;;;;;5042786;28;20502;-68
2022/07/02 12:34:12;;;;;;;;;;;25.10;52.30;;;;;;5043319;28;19933;-69
2022/07/02 12:37:02;;;;;;;;;;;25.00;51.10;;;;;;5040845;28;19932;-67
2022/07/02 12:39:38;;;;;;;;;;;25.00;50.80;;;;;;5032418;28;19928;-68
2022/07/02 12:42:11;;;;;;;;;;;25.10;51.80;;;;;;5041287;28;20382;-68
2022/07/02 12:44:49;;;;;;;;;;;25.00;51.40;;;;;;5041614;28;19933;-67
2022/07/02 12:47:22;;;;;;;;;;;25.10;51.50;;;;;;5042891;28;19936;-72
2022/07/02 12:49:52;;;;;;;;;;;25.10;51.70;;;;;;5044759;28;19929;-68
2022/07/02 12:52:19;;;;;;;;;;;25.10;51.50;;;;;;5043095;28;19954;-69
2022/07/02 12:54:45;;;;;;;;;;;25.20;51.20;;;;;;5043859;28;19935;-69
2022/07/02 12:57:13;;;;;;;;;;;25.20;51.00;;;;;;5041637;28;19928;-68
2022/07/02 12:59:41;;;;;;;;;;;25.30;49.20;;;;;;5040071;28;20013;-67
2022/07/02 13:02:08;;;;;;;;;;;25.80;45.90;;;;;;5044996;28;19932;-70
2022/07/02 13:04:35;;;;;;;;;;;26.50;43.10;;;;;;5053010;28;19929;-69
2022/07/02 13:07:02;;;;;;;;;;;26.80;43.70;;;;;;5053136;28;19936;-73
2022/07/02 13:09:28;;;;;;;;;;;26.80;45.30;;;;;;5047561;28;20464;-69
2022/07/02 13:11:55;;;;;;;;;;;26.70;46.80;;;;;;5052387;28;19940;-68
2022/07/02 13:14:22;;;;;;;;;;;26.50;47.10;;;;;;5051684;28;19929;-71
2022/07/02 13:16:49;;;;;;;;;;;26.40;48.00;;;;;;5051684;28;19936;-69
2022/07/02 13:19:16;;;;;;;;;;;26.30;47.70;;;;;;5049259;28;19929;-72
2022/07/02 13:21:43;;;;;;;;;;;26.20;47.00;;;;;;5051915;28;19936;-70
2022/07/02 13:24:09;;;;;;;;;;;26.20;47.20;;;;;;5051451;28;19928;-69
2022/07/02 13:26:36;;;;;;;;;;;26.10;48.40;;;;;;5051723;28;19929;-68
2022/07/02 13:29:02;;;;;;;;;;;26.10;48.30;;;;;;5048572;28;19928;-70
2022/07/02 13:31:29;;;;;;;;;;;26.10;48.10;;;;;;5051098;28;19928;-68
2022/07/02 13:33:57;;;;;;;;;;;26.20;47.90;;;;;;5051663;28;19929;-71
2022/07/02 13:36:23;;;;;;;;;;;26.20;47.10;;;;;;5046986;28;19929;-69
2022/07/02 13:38:50;;;;;;;;;;;26.20;47.90;;;;;;5052655;28;19936;-68
2022/07/02 13:41:16;;;;;;;;;;;26.20;48.20;;;;;;5044640;28;19924;-72
2022/07/02 13:43:43;;;;;;;;;;;26.30;48.10;;;;;;5050985;28;19928;-71
2022/07/02 13:46:10;;;;;;;;;;;26.30;48.60;;;;;;5051263;28;19933;-69
2022/07/02 13:48:36;;;;;;;;;;;26.30;47.60;;;;;;5049527;28;19936;-69
2022/07/02 13:51:04;;;;;;;;;;;26.40;47.80;;;;;;5051239;28;19929;-72
2022/07/02 13:53:31;;;;;;;;;;;26.50;47.20;;;;;;5050705;28;19935;-68
2022/07/02 13:55:57;;;;;;;;;;;26.50;47.10;;;;;;5045433;28;19936;-72
2022/07/02 13:58:24;;;;;;;;;;;26.50;47.60;;;;;;5051914;28;19963;-71
2022/07/02 14:00:50;;;;;;;;;;;26.60;48.30;;;;;;5051216;28;19928;-70
2022/07/02 14:03:17;;;;;;;;;;;26.70;48.70;;;;;;5048915;28;20007;-71
2022/07/02 14:05:44;;;;;;;;;;;26.70;48.10;;;;;;5043723;28;19959;-69
2022/07/02 14:08:11;;;;;;;;;;;26.80;47.80;;;;;;5051778;28;20573;-68
2022/07/02 14:10:39;;;;;;;;;;;26.90;47.30;;;;;;5043735;28;19939;-68
2022/07/02 14:13:06;;;;;;;;;;;26.90;47.20;;;;;;5050229;28;19925;-68
2022/07/02 14:15:32;;;;;;;;;;;27.00;46.90;;;;;;5050648;28;19929;-71
2022/07/02 14:17:59;;;;;;;;;;;27.00;46.50;;;;;;5051559;28;19932;-69
2022/07/02 14:20:25;;;;;;;;;;;27.10;46.40;;;;;;5045452;28;20301;-72
2022/07/02 14:22:52;;;;;;;;;;;27.20;47.00;;;;;;5050469;28;19933;-70
2022/07/02 14:25:20;;;;;;;;;;;27.20;46.70;;;;;;5048241;28;20366;-72